Time;durP1;ratioP1;P1;durP2;ratioP2;P2;SDS_P1;SDS_P2;PMS_P1;PMS_P2;Temp;Humidity;BMP_temperature;BMP_pressure;BME280_temperature;BME280_humidity;BME280_pressure;Samples;Min_cycle;Max_cycle;Signal;HPM_P1;HPM_P2
2022/11/01 00:01:46;;;;;;;;;52.67;42.00;;;;;15.67;69.43;98987.03;6100508;28;96377;-60
2022/11/01 00:04:50;;;;;;;;;54.50;42.75;;;;;15.62;69.46;98973.38;6088392;28;97058;-60
2022/11/01 00:07:53;;;;;;;;;53.60;43.00;;;;;15.56;68.81;98978.72;6090508;28;96701;-59
2022/11/01 00:11:02;;;;;;;;;50.80;41.40;;;;;15.51;69.16;98969.69;6095568;28;96558;-59
2022/11/01 00:14:05;;;;;;;;;52.80;43.40;;;;;15.48;69.04;98970.16;6093577;28;96553;-59
2022/11/01 00:17:10;;;;;;;;;50.60;41.00;;;;;15.42;69.04;98974.72;6095544;28;96671;-59
2022/11/01 00:20:13;;;;;;;;;50.60;40.60;;;;;15.40;68.85;98967.88;6095372;28;96723;-59
2022/11/01 00:23:17;;;;;;;;;49.00;38.75;;;;;15.38;69.02;98968.13;6095776;28;96324;-58
2022/11/01 00:26:23;;;;;;;;;47.00;39.00;;;;;15.40;68.39;98970.59;6096902;28;97150;-59
2022/11/01 00:29:27;;;;;;;;;48.80;40.00;;;;;15.38;68.71;98968.13;6095130;28;96969;-59
2022/11/01 00:32:32;;;;;;;;;49.00;39.00;;;;;15.34;68.36;98967.00;6091642;28;96418;-58
2022/11/01 00:35:36;;;;;;;;;45.60;37.00;;;;;15.32;68.85;98954.72;6091930;28;96454;-58
2022/11/01 00:38:40;;;;;;;;;49.20;39.80;;;;;15.11;68.57;98926.44;6097743;28;97005;-58
2022/11/01 00:41:43;;;;;;;;;48.00;40.00;;;;;15.23;68.60;98943.47;6096945;28;96422;-58
2022/11/01 00:44:46;;;;;;;;;39.60;34.60;;;;;15.19;68.83;98939.63;6098104;28;96556;-59
2022/11/01 00:47:51;;;;;;;;;46.00;38.50;;;;;15.14;68.38;98932.22;6082369;28;96344;-58
2022/11/01 00:50:55;;;;;;;;;48.60;39.00;;;;;15.14;68.30;98939.56;6076903;28;96403;-59
2022/11/01 00:53:58;;;;;;;;;52.40;42.40;;;;;15.15;69.10;98960.19;6079398;28;96917;-59
2022/11/01 00:57:01;;;;;;;;;50.60;41.60;;;;;15.16;69.69;98954.50;6086860;28;96317;-58
2022/11/01 01:00:06;;;;;;;;;53.00;42.00;;;;;15.17;69.92;98958.03;6095222;28;96342;-59
2022/11/01 01:03:10;;;;;;;;;50.75;40.75;;;;;15.20;70.17;98959.47;6098834;28;96700;-59
2022/11/01 01:06:14;;;;;;;;;49.60;41.00;;;;;15.20;70.01;98948.59;6078821;28;96438;-58
2022/11/01 01:09:17;;;;;;;;;47.00;38.40;;;;;15.15;70.66;98933.84;6080457;28;97336;-62
2022/11/01 01:12:21;;;;;;;;;45.00;36.40;;;;;15.12;70.68;98931.66;6094813;28;96564;-58
2022/11/01 01:15:24;;;;;;;;;47.60;39.20;;;;;15.06;70.40;98929.09;6099068;28;97014;-59
2022/11/01 01:18:29;;;;;;;;;47.80;37.80;;;;;15.03;70.20;98930.44;6079224;28;99523;-58
2022/11/01 01:21:32;;;;;;;;;47.00;39.00;;;;;14.98;70.46;98940.38;6099788;28;96296;-60
2022/11/01 01:24:35;;;;;;;;;47.50;38.50;;;;;14.95;70.68;98935.47;6088165;28;96458;-58
2022/11/01 01:27:39;;;;;;;;;44.00;36.00;;;;;14.96;71.05;98945.22;6109872;28;96514;-59
2022/11/01 01:30:42;;;;;;;;;44.40;37.00;;;;;14.99;70.73;98936.59;6093355;28;96461;-58
2022/11/01 01:33:46;;;;;;;;;43.60;35.80;;;;;15.02;70.76;98917.91;6097302;28;96424;-59
2022/11/01 01:36:50;;;;;;;;;47.00;39.00;;;;;15.01;70.70;98918.16;6099516;28;96365;-58
2022/11/01 01:39:53;;;;;;;;;43.00;36.00;;;;;14.96;70.75;98908.06;6081012;28;96452;-58
2022/11/01 01:42:57;;;;;;;;;49.00;39.00;;;;;14.79;71.63;98901.84;6087687;28;98212;-58
2022/11/01 01:46:00;;;;;;;;;46.40;36.60;;;;;14.86;71.43;98907.06;6094531;28;97026;-58
2022/11/01 01:49:05;;;;;;;;;42.00;35.00;;;;;14.85;71.80;98905.44;6092404;28;96440;-58
2022/11/01 01:52:09;;;;;;;;;44.33;35.67;;;;;14.79;71.69;98914.59;6094407;28;97760;-59
2022/11/01 01:55:16;;;;;;;;;42.60;35.00;;;;;14.68;72.35;98905.47;6104643;28;96445;-58
2022/11/01 01:58:22;;;;;;;;;45.00;36.00;;;;;14.65;72.14;98901.34;6095720;28;96384;-62
2022/11/01 02:01:27;;;;;;;;;39.60;33.00;;;;;14.64;72.05;98905.13;6096827;28;96317;-58
2022/11/01 02:04:37;;;;;;;;;41.00;35.00;;;;;14.65;71.98;98904.06;6097623;28;96509;-58
2022/11/01 02:07:41;;;;;;;;;38.80;33.00;;;;;14.61;72.30;98904.81;6094851;28;96980;-60
2022/11/01 02:10:45;;;;;;;;;45.00;35.00;;;;;14.58;72.57;98908.00;6099309;28;96293;-58
2022/11/01 02:13:49;;;;;;;;;42.75;34.75;;;;;14.53;72.65;98902.50;6098017;28;96368;-58
2022/11/01 02:16:58;;;;;;;;;37.60;32.00;;;;;14.45;73.10;98890.19;6095022;28;96313;-59
2022/11/01 02:20:42;;;;;;;;;38.00;33.00;;;;;14.43;73.93;98900.44;6095337;28;96570;-59
2022/11/01 02:24:19;;;;;;;;;36.00;31.60;;;;;14.38;73.63;98903.06;6091277;28;96470;-58
2022/11/01 02:27:29;;;;;;;;;40.60;33.00;;;;;14.46;74.06;98901.84;6097885;28;96267;-58
2022/11/01 02:30:42;;;;;;;;;41.00;34.60;;;;;14.55;73.60;98898.50;6097097;28;96370;-58
2022/11/01 02:33:54;;;;;;;;;37.40;32.40;;;;;14.61;73.39;98908.31;6100097;28;96317;-59
2022/11/01 02:37:02;;;;;;;;;36.00;31.75;;;;;14.49;73.28;98883.19;6067178;28;96917;-58
2022/11/01 02:40:11;;;;;;;;;36.40;32.00;;;;;14.52;72.66;98898.97;6086998;28;96364;-58
2022/11/01 02:43:18;;;;;;;;;39.60;32.60;;;;;14.45;72.67;98901.03;6097859;28;96475;-58
2022/11/01 02:49:48;;;;;;;;;35.00;32.00;;;;;14.39;72.94;98902.00;6091415;28;97147;-58
2022/11/01 02:52:52;;;;;;;;;38.40;32.60;;;;;14.42;72.89;98900.69;6097198;28;96990;-60
2022/11/01 02:55:56;;;;;;;;;36.00;31.80;;;;;14.42;73.05;98898.78;6098189;28;97063;-58
2022/11/01 02:59:01;;;;;;;;;34.00;31.00;;;;;14.41;72.54;98905.31;6091469;28;96958;-58
2022/11/01 03:02:10;;;;;;;;;30.00;28.60;;;;;14.13;73.16;98879.03;6096865;28;96500;-60
2022/11/01 03:05:21;;;;;;;;;39.00;33.00;;;;;14.35;74.03;98908.13;6099879;28;96336;-58
2022/11/01 03:08:28;;;;;;;;;39.25;32.25;;;;;14.39;73.57;98904.72;6066481;28;97281;-58
2022/11/01 03:11:40;;;;;;;;;34.00;30.00;;;;;14.43;73.39;98905.03;6084690;28;96403;-60
2022/11/01 03:14:52;;;;;;;;;35.00;30.00;;;;;14.37;73.16;98906.06;6093168;28;96669;-58
2022/11/01 03:18:02;;;;;;;;;33.60;30.60;;;;;14.40;73.56;98900.13;6093042;28;96333;-59
2022/11/01 03:21:15;;;;;;;;;34.20;30.20;;;;;14.45;73.15;98883.94;6088800;28;96320;-59
2022/11/01 03:24:24;;;;;;;;;35.00;32.00;;;;;14.41;73.12;98894.47;6079884;28;96344;-60
2022/11/01 03:27:33;;;;;;;;;36.50;31.00;;;;;14.40;73.17;98897.41;6086393;28;96487;-58
2022/11/01 03:30:41;;;;;;;;;32.40;30.80;;;;;14.21;73.51;98872.38;6089985;28;97011;-58
2022/11/01 03:33:48;;;;;;;;;33.20;30.80;;;;;14.32;73.51;98879.59;6100734;28;96532;-59
2022/11/01 03:37:00;;;;;;;;;37.60;32.00;;;;;14.35;74.04;98886.44;6098749;28;97210;-60
2022/11/01 03:40:06;;;;;;;;;36.00;30.60;;;;;14.40;73.88;98887.38;6094933;28;96473;-59
2022/11/01 03:43:15;;;;;;;;;30.20;28.20;;;;;14.46;73.77;98889.13;6094611;28;96744;-59
2022/11/01 03:46:19;;;;;;;;;32.00;30.00;;;;;14.50;73.16;98892.97;6094398;28;96926;-60
2022/11/01 03:49:23;;;;;;;;;37.00;33.00;;;;;14.48;72.91;98897.00;6080597;28;96766;-60
2022/11/01 03:52:28;;;;;;;;;34.40;31.00;;;;;14.43;72.21;98891.47;6093716;28;96416;-62
2022/11/01 03:55:31;;;;;;;;;41.75;34.50;;;;;14.36;71.83;98896.22;6095131;28;97227;-59
2022/11/01 03:58:44;;;;;;;;;42.00;35.00;;;;;14.35;71.79;98900.00;6078127;28;96800;-59
2022/11/01 04:01:48;;;;;;;;;41.50;34.25;;;;;14.29;71.49;98904.50;6096375;28;96923;-59
2022/11/01 04:04:51;;;;;;;;;43.20;35.00;;;;;14.29;71.66;98896.38;6098542;28;96498;-60
2022/11/01 04:07:56;;;;;;;;;45.25;37.50;;;;;14.19;71.60;98899.72;6097107;28;96385;-59
2022/11/01 04:11:00;;;;;;;;;47.00;38.00;;;;;14.10;71.75;98903.91;6089933;28;96858;-58
2022/11/01 04:20:44;;;;;;;;;49.20;40.00;;;;;13.96;72.29;98894.44;6096467;28;96375;-60
2022/11/01 04:23:49;;;;;;;;;49.67;40.00;;;;;13.92;72.40;98897.88;6096193;28;96679;-58
2022/11/01 04:26:53;;;;;;;;;50.20;40.20;;;;;13.87;72.63;98883.19;6094283;28;97225;-58
2022/11/01 04:29:56;;;;;;;;;47.00;38.00;;;;;13.81;72.54;98891.44;6075928;28;96679;-58
2022/11/01 04:32:59;;;;;;;;;45.80;37.40;;;;;13.80;73.04;98878.97;6084804;28;96737;-59
2022/11/01 04:36:05;;;;;;;;;46.00;38.00;;;;;13.85;72.79;98879.06;6096108;28;97340;-60
2022/11/01 04:39:10;;;;;;;;;41.20;34.80;;;;;13.92;73.09;98881.63;6095894;28;96722;-58
2022/11/01 04:42:13;;;;;;;;;41.00;34.00;;;;;13.97;73.07;98879.00;6079993;28;97731;-58
2022/11/01 04:45:16;;;;;;;;;43.20;35.00;;;;;14.06;72.86;98877.53;6102766;28;96121;-58
2022/11/01 04:48:19;;;;;;;;;45.80;37.80;;;;;14.09;72.53;98877.03;6101098;28;96534;-59
2022/11/01 04:51:23;;;;;;;;;48.60;39.00;;;;;14.14;71.64;98886.09;6085249;28;96847;-59
2022/11/01 04:54:31;;;;;;;;;50.50;39.25;;;;;14.11;71.83;98880.34;6100655;28;96349;-60
2022/11/01 04:57:38;;;;;;;;;48.80;39.20;;;;;14.08;72.04;98878.09;6080744;28;97391;-58
2022/11/01 05:00:42;;;;;;;;;54.80;42.40;;;;;14.07;72.84;98873.78;6101791;28;96474;-59
2022/11/01 05:03:47;;;;;;;;;50.20;41.40;;;;;14.07;73.26;98871.06;6100299;28;97285;-59
2022/11/01 05:06:51;;;;;;;;;47.25;40.25;;;;;14.09;73.27;98861.59;6100731;28;96380;-59
2022/11/01 05:09:56;;;;;;;;;53.60;42.60;;;;;14.05;73.53;98855.03;6095546;28;96456;-58
2022/11/01 05:13:00;;;;;;;;;52.00;41.00;;;;;14.05;73.77;98859.63;6098478;28;96331;-59
2022/11/01 05:16:04;;;;;;;;;53.00;43.00;;;;;14.03;73.99;98865.28;6099996;28;96538;-58
2022/11/01 05:19:22;;;;;;;;;53.25;42.25;;;;;13.97;74.14;98869.00;6099732;28;96250;-59
2022/11/01 05:22:25;;;;;;;;;53.60;42.60;;;;;13.84;74.91;98878.22;6100467;28;96973;-58
2022/11/01 05:25:30;;;;;;;;;50.00;40.00;;;;;13.82;75.05;98871.41;6099663;28;96763;-58
2022/11/01 05:28:39;;;;;;;;;56.60;44.00;;;;;13.77;75.38;98855.91;6094435;28;96726;-58
2022/11/01 05:31:42;;;;;;;;;55.40;43.00;;;;;13.76;75.47;98859.66;6097468;28;96364;-59
2022/11/01 05:34:48;;;;;;;;;54.80;43.20;;;;;13.80;75.56;98862.69;6097571;28;96450;-58
2022/11/01 05:37:51;;;;;;;;;53.00;42.00;;;;;13.80;75.45;98868.13;6096924;28;96358;-58
2022/11/01 05:40:56;;;;;;;;;49.00;40.50;;;;;13.66;75.58;98873.03;6097552;28;96639;-58
2022/11/01 05:44:00;;;;;;;;;48.60;38.60;;;;;13.53;75.95;98869.78;6097335;28;96954;-60
2022/11/01 05:47:04;;;;;;;;;43.40;36.00;;;;;13.53;75.33;98865.19;6097217;28;98489;-59
2022/11/01 05:50:08;;;;;;;;;41.80;34.80;;;;;13.47;75.13;98858.03;6096853;28;96390;-62
2022/11/01 05:53:11;;;;;;;;;43.00;35.00;;;;;13.47;75.13;98860.72;6099366;28;96399;-58
2022/11/01 05:56:16;;;;;;;;;33.60;30.60;;;;;13.36;74.88;98856.16;6096918;28;96384;-62
2022/11/01 05:59:19;;;;;;;;;38.67;33.00;;;;;13.29;75.48;98856.28;6099446;28;97407;-59
2022/11/01 06:02:23;;;;;;;;;36.00;32.00;;;;;13.31;75.27;98864.19;6093678;28;96860;-60
2022/11/01 06:05:26;;;;;;;;;25.40;23.40;;;;;13.20;75.37;98862.31;6093885;28;96869;-59
2022/11/01 06:08:30;;;;;;;;;26.40;21.40;;;;;13.28;75.40;98860.09;6095123;28;96368;-58
2022/11/01 06:11:35;;;;;;;;;23.60;21.60;;;;;13.30;75.16;98870.66;6094641;28;96371;-59
2022/11/01 06:14:43;;;;;;;;;23.00;20.00;;;;;13.18;75.46;98870.69;6094145;28;96389;-58
2022/11/01 06:17:47;;;;;;;;;23.80;22.00;;;;;13.23;75.83;98880.81;6092363;28;97209;-59
2022/11/01 06:20:50;;;;;;;;;25.20;21.40;;;;;13.24;75.81;98880.56;6091067;28;98618;-60
2022/11/01 06:23:53;;;;;;;;;20.25;18.00;;;;;13.26;76.49;98874.91;6082554;28;96515;-62
2022/11/01 06:26:58;;;;;;;;;20.80;20.40;;;;;13.32;76.62;98885.63;6090645;28;96662;-59
2022/11/01 06:30:01;;;;;;;;;21.80;18.00;;;;;13.39;76.82;98882.75;6093536;28;97205;-59
2022/11/01 06:33:05;;;;;;;;;19.00;18.40;;;;;13.44;76.79;98886.38;6088182;28;96289;-60
2022/11/01 06:36:09;;;;;;;;;18.00;17.40;;;;;13.43;77.28;98882.06;6079709;28;96418;-57
2022/11/01 06:39:12;;;;;;;;;16.80;15.00;;;;;13.51;77.22;98883.56;6082910;28;96649;-60
2022/11/01 06:42:17;;;;;;;;;19.00;17.25;;;;;13.54;76.86;98879.53;6079001;28;96332;-57
2022/11/01 06:45:20;;;;;;;;;17.20;15.80;;;;;13.56;77.19;98878.22;6097648;28;97155;-57
2022/11/01 06:48:24;;;;;;;;;18.00;15.00;;;;;13.60;77.42;98890.22;6093791;28;97541;-59
2022/11/01 06:51:28;;;;;;;;;15.40;14.00;;;;;13.68;77.13;98895.25;6091118;28;96741;-58
2022/11/01 06:54:32;;;;;;;;;19.00;17.00;;;;;13.81;76.86;98886.03;6094911;28;96286;-58
2022/11/01 06:57:36;;;;;;;;;17.40;15.00;;;;;13.88;76.44;98900.25;6077015;28;96860;-61
2022/11/01 07:00:40;;;;;;;;;18.25;17.00;;;;;13.83;77.17;98902.84;6087474;28;96862;-59
2022/11/01 07:03:43;;;;;;;;;21.75;18.00;;;;;13.85;77.32;98906.16;6097642;28;96225;-57
2022/11/01 07:06:46;;;;;;;;;21.00;19.00;;;;;13.89;77.69;98893.75;6088411;28;96870;-61
2022/11/01 07:09:50;;;;;;;;;19.67;17.33;;;;;14.03;77.48;98905.13;6087963;28;96835;-58
2022/11/01 07:12:58;;;;;;;;;21.50;20.00;;;;;14.17;77.38;98907.28;6075634;28;96720;-59
2022/11/01 07:16:03;;;;;;;;;17.00;16.00;;;;;14.29;77.04;98896.38;6073840;28;96651;-59
2022/11/01 07:19:06;;;;;;;;;20.00;18.40;;;;;14.37;76.71;98889.78;6083095;28;97907;-61
2022/11/01 07:22:09;;;;;;;;;19.60;18.00;;;;;14.47;77.03;98898.88;6079704;28;96723;-59
2022/11/01 07:25:12;;;;;;;;;22.00;19.25;;;;;14.53;76.69;98895.19;6073683;28;96451;-58
2022/11/01 07:28:17;;;;;;;;;24.80;20.80;;;;;14.61;76.85;98889.34;6080110;28;97299;-59
2022/11/01 07:31:20;;;;;;;;;21.60;20.60;;;;;14.68;76.50;98884.56;6084786;28;96491;-59
2022/11/01 07:34:24;;;;;;;;;21.20;19.00;;;;;14.72;76.32;98885.72;6086860;28;96767;-60
2022/11/01 07:37:29;;;;;;;;;20.50;19.00;;;;;14.85;76.38;98891.88;6083605;28;96938;-59
2022/11/01 07:40:32;;;;;;;;;23.80;22.80;;;;;14.85;76.16;98895.41;6091404;28;96269;-58
2022/11/01 07:43:37;;;;;;;;;22.40;21.40;;;;;14.90;76.61;98895.50;6100135;28;96442;-58
2022/11/01 07:46:41;;;;;;;;;21.40;20.00;;;;;15.01;76.31;98896.44;6097036;28;96150;-58
2022/11/01 07:49:44;;;;;;;;;20.20;19.20;;;;;15.11;75.92;98891.97;6095167;28;97394;-59
2022/11/01 07:52:47;;;;;;;;;24.80;21.80;;;;;15.35;75.45;98891.72;6086004;28;97730;-58
2022/11/01 07:55:52;;;;;;;;;25.00;21.00;;;;;15.40;74.72;98864.63;6092559;28;98020;-59
2022/11/01 07:58:57;;;;;;;;;24.00;21.20;;;;;15.67;74.00;98878.31;6102717;28;96531;-59
2022/11/01 08:02:00;;;;;;;;;23.00;22.00;;;;;15.71;73.96;98877.53;6101911;28;96673;-59
2022/11/01 08:05:11;;;;;;;;;27.00;22.40;;;;;15.81;73.60;98887.72;6095472;28;96829;-58
2022/11/01 08:08:15;;;;;;;;;24.20;21.00;;;;;15.92;73.10;98887.56;6078701;28;98631;-59
2022/11/01 08:11:20;;;;;;;;;23.60;21.60;;;;;15.96;72.49;98885.16;6095742;28;96644;-60
2022/11/01 08:14:26;;;;;;;;;24.60;21.40;;;;;16.01;72.30;98896.06;6097973;28;96656;-59
2022/11/01 08:17:32;;;;;;;;;26.40;25.00;;;;;16.03;72.35;98900.16;6085199;28;96739;-59
2022/11/01 08:20:39;;;;;;;;;22.20;21.20;;;;;16.01;72.10;98896.91;6095985;28;96270;-58
2022/11/01 08:23:43;;;;;;;;;23.60;21.60;;;;;16.06;72.24;98906.19;6095121;28;96597;-58
2022/11/01 08:26:46;;;;;;;;;24.75;21.00;;;;;16.15;72.18;98904.63;6087280;28;96376;-58
2022/11/01 08:29:51;;;;;;;;;23.80;21.60;;;;;16.16;71.92;98909.84;6088532;28;97119;-59
2022/11/01 08:32:58;;;;;;;;;28.75;23.75;;;;;16.18;71.92;98904.94;6082599;28;96829;-59
2022/11/01 08:36:02;;;;;;;;;26.25;24.00;;;;;16.21;71.94;98890.03;6087635;28;96646;-59
2022/11/01 08:39:05;;;;;;;;;29.40;21.60;;;;;16.29;71.57;98892.25;6079517;28;96374;-62
2022/11/01 08:42:09;;;;;;;;;27.00;24.75;;;;;16.32;71.25;98889.84;6087605;28;96402;-59
2022/11/01 08:45:15;;;;;;;;;25.00;22.80;;;;;16.34;71.36;98879.53;6089187;28;96470;-59
2022/11/01 08:48:18;;;;;;;;;26.40;22.40;;;;;16.45;71.29;98883.16;6089123;28;97208;-61
2022/11/01 08:51:24;;;;;;;;;28.00;25.50;;;;;16.52;71.07;98878.28;6093880;28;96317;-59
2022/11/01 08:54:27;;;;;;;;;27.00;25.00;;;;;16.59;70.92;98878.94;6097155;28;95940;-58
2022/11/01 08:57:31;;;;;;;;;26.40;23.40;;;;;16.67;70.88;98874.91;6095955;28;96939;-59
2022/11/01 09:00:36;;;;;;;;;24.20;22.00;;;;;16.74;70.41;98879.06;6083715;28;96728;-58
2022/11/01 09:03:40;;;;;;;;;28.00;24.50;;;;;16.82;70.23;98886.72;6086493;28;96409;-59
2022/11/01 09:06:43;;;;;;;;;33.20;27.00;;;;;16.79;69.67;98887.25;6057391;28;97287;-58
2022/11/01 09:09:46;;;;;;;;;28.25;23.50;;;;;16.92;69.64;98888.69;6086087;28;96602;-60
2022/11/01 09:12:50;;;;;;;;;28.00;24.80;;;;;16.96;69.91;98894.47;6094772;28;97804;-59
2022/11/01 09:15:55;;;;;;;;;29.00;26.00;;;;;16.93;68.67;98887.63;6093846;28;96193;-59
2022/11/01 09:19:04;;;;;;;;;29.00;25.00;;;;;17.05;69.01;98907.31;6087222;28;97056;-58
2022/11/01 09:22:08;;;;;;;;;31.40;25.40;;;;;17.05;69.10;98917.38;6089789;28;98083;-62
2022/11/01 09:25:12;;;;;;;;;30.75;28.50;;;;;17.08;68.83;98904.06;6092831;28;96458;-59
2022/11/01 09:28:16;;;;;;;;;31.40;27.00;;;;;17.17;69.21;98901.66;6089305;28;96947;-60
2022/11/01 09:31:20;;;;;;;;;26.20;22.60;;;;;17.22;68.71;98901.69;6095599;28;96266;-58
2022/11/01 09:34:24;;;;;;;;;29.00;26.00;;;;;17.20;68.68;98898.41;6096789;28;97178;-58
2022/11/01 09:37:27;;;;;;;;;30.50;27.00;;;;;17.22;68.70;98894.31;6099830;28;96370;-58
2022/11/01 09:40:37;;;;;;;;;31.00;27.00;;;;;17.33;68.47;98901.47;6093498;28;96362;-59
2022/11/01 09:43:44;;;;;;;;;30.25;27.00;;;;;17.33;68.51;98912.38;6080805;28;99099;-58
2022/11/01 09:46:52;;;;;;;;;32.00;28.50;;;;;17.32;68.82;98905.28;6090647;28;96570;-58
2022/11/01 09:50:11;;;;;;;;;27.60;24.60;;;;;17.32;68.28;98904.47;6104562;28;96624;-59
2022/11/01 09:53:23;;;;;;;;;30.40;25.00;;;;;17.27;68.35;98890.81;6089289;28;96720;-59
2022/11/01 09:56:31;;;;;;;;;32.00;30.00;;;;;17.25;68.15;98895.72;6097715;28;96340;-58
2022/11/01 09:59:41;;;;;;;;;29.40;26.80;;;;;17.30;67.90;98899.25;6084998;28;98988;-58
2022/11/01 10:03:14;;;;;;;;;23.00;22.60;;;;;17.37;67.46;98895.47;6102400;28;96838;-58
2022/11/01 10:06:23;;;;;;;;;23.00;21.60;;;;;17.49;66.30;98899.66;6097454;28;96543;-59
2022/11/01 10:09:38;;;;;;;;;26.25;23.75;;;;;17.69;66.42;98894.28;6098908;28;96577;-58
2022/11/01 10:12:55;;;;;;;;;26.50;24.00;;;;;17.88;66.30;98896.53;6104272;28;96428;-61
2022/11/01 10:16:04;;;;;;;;;23.40;21.60;;;;;18.13;64.93;98899.31;6097090;28;96713;-57
2022/11/01 10:19:13;;;;;;;;;28.60;22.80;;;;;18.18;63.62;98897.41;6092839;28;96259;-59
2022/11/01 10:22:22;;;;;;;;;27.60;23.20;;;;;18.33;63.15;98914.88;6095575;28;96245;-58
2022/11/01 10:25:29;;;;;;;;;31.80;26.20;;;;;18.55;62.72;98907.31;6092574;28;96567;-58
2022/11/01 10:28:44;;;;;;;;;28.80;26.40;;;;;18.67;61.82;98913.28;6097126;28;96723;-59
2022/11/01 10:31:53;;;;;;;;;24.00;22.00;;;;;18.80;61.51;98907.31;6095786;28;96642;-60
2022/11/01 10:35:04;;;;;;;;;24.20;22.20;;;;;18.92;60.74;98899.63;6094127;28;96758;-59
2022/11/01 10:38:17;;;;;;;;;26.40;23.40;;;;;19.18;59.18;98905.88;6102948;28;96339;-60
2022/11/01 10:41:48;;;;;;;;;25.00;23.50;;;;;19.50;58.21;98921.91;6098248;28;97599;-59
2022/11/01 10:44:55;;;;;;;;;25.67;22.67;;;;;19.92;56.92;98916.00;6088174;28;97746;-61
2022/11/01 10:47:58;;;;;;;;;24.80;23.00;;;;;20.07;55.88;98913.19;6092365;28;96728;-58
2022/11/01 10:51:06;;;;;;;;;26.60;24.00;;;;;20.20;54.75;98909.81;6085066;28;96383;-58
2022/11/01 10:54:17;;;;;;;;;26.40;24.00;;;;;21.39;52.03;98912.13;6094682;28;96331;-59
2022/11/01 10:57:30;;;;;;;;;22.50;20.50;;;;;23.51;47.39;98897.84;6089210;28;97061;-59
2022/11/01 11:00:39;;;;;;;;;27.00;23.00;;;;;24.88;41.72;98912.13;6090285;28;96480;-59
2022/11/01 11:03:45;;;;;;;;;25.20;22.20;;;;;25.90;39.14;98904.69;6089702;28;96491;-59
2022/11/01 11:06:51;;;;;;;;;25.50;24.00;;;;;26.02;38.10;98901.25;6106088;28;96330;-60
2022/11/01 11:09:55;;;;;;;;;25.00;22.00;;;;;27.02;36.72;98897.22;6087992;28;97175;-57
2022/11/01 11:13:02;;;;;;;;;24.00;22.60;;;;;27.74;34.63;98898.28;6078176;28;98407;-58
2022/11/01 11:16:15;;;;;;;;;25.25;22.00;;;;;28.49;33.92;98890.94;6076109;28;96440;-60
2022/11/01 11:19:25;;;;;;;;;24.75;22.00;;;;;29.16;32.46;98896.97;6081807;28;96489;-57
2022/11/01 11:22:31;;;;;;;;;21.40;20.40;;;;;29.62;31.33;98892.97;6077930;28;96124;-57
2022/11/01 11:25:36;;;;;;;;;25.40;22.80;;;;;30.05;30.14;98886.88;6076038;28;97533;-61
2022/11/01 11:28:45;;;;;;;;;24.40;21.40;;;;;30.28;29.54;98866.88;6086221;28;96604;-59
2022/11/01 11:31:55;;;;;;;;;25.00;23.80;;;;;31.15;28.97;98884.50;6075791;28;96641;-58
2022/11/01 11:35:02;;;;;;;;;21.00;19.80;;;;;31.52;28.15;98875.91;6074154;28;96569;-58
2022/11/01 11:38:07;;;;;;;;;24.60;22.60;;;;;31.83;27.34;98882.25;6072124;28;96420;-58
2022/11/01 11:41:12;;;;;;;;;23.50;21.50;;;;;31.94;27.31;98851.03;6057472;28;97261;-60
2022/11/01 11:44:41;;;;;;;;;24.50;23.00;;;;;31.79;26.95;98877.78;6074654;28;96546;-58
2022/11/01 11:47:46;;;;;;;;;24.00;23.00;;;;;31.66;27.71;98879.88;6077310;28;96424;-60
2022/11/01 11:51:00;;;;;;;;;25.40;23.00;;;;;31.79;27.07;98872.19;6073660;28;96475;-59
2022/11/01 11:54:13;;;;;;;;;23.20;21.20;;;;;31.83;26.87;98873.09;6083584;28;97597;-59
2022/11/01 11:57:20;;;;;;;;;24.20;22.20;;;;;32.17;26.57;98875.09;6078994;28;97155;-59
2022/11/01 12:00:28;;;;;;;;;24.50;21.75;;;;;32.78;26.20;98873.59;6076511;28;97317;-58
2022/11/01 12:03:44;;;;;;;;;21.00;19.40;;;;;33.09;25.82;98876.19;6087736;28;96843;-58
2022/11/01 12:06:47;;;;;;;;;22.60;21.00;;;;;33.28;25.57;98870.56;6112662;28;96246;-58
2022/11/01 12:09:52;;;;;;;;;23.00;22.00;;;;;32.75;26.14;98869.56;6099806;28;96543;-60
2022/11/01 12:12:56;;;;;;;;;22.60;21.00;;;;;31.85;27.16;98853.22;6086605;28;97250;-58
2022/11/01 12:16:08;;;;;;;;;23.60;22.00;;;;;31.31;27.90;98863.03;6091957;28;96283;-58
2022/11/01 12:19:24;;;;;;;;;22.80;20.80;;;;;31.04;28.29;98855.56;6084444;28;97613;-60
2022/11/01 12:22:31;;;;;;;;;25.00;22.25;;;;;30.34;28.89;98857.13;6081813;28;97761;-58
2022/11/01 12:25:38;;;;;;;;;25.20;22.00;;;;;29.76;29.55;98847.38;6084231;28;97041;-62
2022/11/01 12:28:47;;;;;;;;;23.00;20.50;;;;;29.48;30.35;98852.81;6063909;28;96485;-58
2022/11/01 12:31:53;;;;;;;;;26.60;22.40;;;;;29.00;30.93;98848.81;6076627;28;97089;-58
2022/11/01 12:35:00;;;;;;;;;24.00;22.60;;;;;28.37;31.55;98814.84;6088000;28;97324;-58
2022/11/01 12:38:33;;;;;;;;;22.80;20.80;;;;;28.18;32.04;98846.97;6084663;28;96228;-58
2022/11/01 12:41:43;;;;;;;;;25.00;21.80;;;;;28.20;32.64;98851.03;6093519;28;96969;-59
2022/11/01 12:44:52;;;;;;;;;20.60;18.20;;;;;28.13;33.02;98850.78;6095683;28;96434;-58
2022/11/01 12:48:00;;;;;;;;;22.00;22.00;;;;;28.13;33.33;98850.78;6095359;28;96591;-58
2022/11/01 12:51:09;;;;;;;;;22.50;21.00;;;;;28.13;32.87;98859.09;6093382;28;96681;-58
2022/11/01 12:54:19;;;;;;;;;27.00;22.00;;;;;27.81;33.48;98854.22;6095113;28;96482;-58
2022/11/01 12:57:24;;;;;;;;;23.60;20.60;;;;;27.62;33.78;98851.06;6093714;28;96284;-58
2022/11/01 13:00:41;;;;;;;;;20.00;19.00;;;;;27.37;34.07;98847.25;6095205;28;96751;-58
2022/11/01 13:03:53;;;;;;;;;19.80;18.00;;;;;27.23;34.75;98853.03;6098852;28;96539;-59
2022/11/01 13:07:11;;;;;;;;;23.60;20.60;;;;;27.06;34.87;98855.88;6099969;28;96264;-57
2022/11/01 13:10:23;;;;;;;;;19.00;18.00;;;;;26.88;35.17;98854.31;6100741;28;96488;-58
2022/11/01 13:13:34;;;;;;;;;23.00;21.00;;;;;26.72;35.56;98851.22;6100459;28;96306;-58
2022/11/01 13:16:44;;;;;;;;;22.80;19.40;;;;;26.46;36.00;98850.44;6099942;28;96622;-57
2022/11/01 13:19:57;;;;;;;;;20.50;18.00;;;;;26.18;36.61;98856.28;6095466;28;97072;-57
2022/11/01 13:23:11;;;;;;;;;23.40;21.00;;;;;25.88;37.18;98858.03;6083898;28;96564;-57
2022/11/01 13:26:21;;;;;;;;;19.60;17.00;;;;;25.75;37.52;98853.47;6089482;28;96590;-57
2022/11/01 13:29:35;;;;;;;;;21.20;17.00;;;;;25.76;37.74;98859.78;6099283;28;97091;-58
2022/11/01 13:32:47;;;;;;;;;20.00;17.00;;;;;25.72;37.75;98859.63;6100371;28;96384;-57
2022/11/01 13:35:57;;;;;;;;;20.80;17.80;;;;;25.56;38.12;98854.88;6102672;28;96491;-57
2022/11/01 13:39:12;;;;;;;;;19.80;19.00;;;;;25.39;38.48;98861.94;6108629;28;96868;-57
2022/11/01 13:42:18;;;;;;;;;21.00;16.60;;;;;25.08;38.83;98861.13;6101586;28;98113;-57
2022/11/01 13:45:46;;;;;;;;;17.00;15.00;;;;;24.88;39.41;98861.69;6102013;28;96953;-57
2022/11/01 13:49:30;;;;;;;;;19.60;16.60;;;;;24.84;39.76;98855.13;6100530;28;96426;-58
2022/11/01 13:52:41;;;;;;;;;17.60;16.00;;;;;24.63;39.80;98865.88;6068943;28;96463;-57
2022/11/01 13:55:51;;;;;;;;;16.60;15.60;;;;;24.41;40.73;98868.63;6100640;28;97088;-59
2022/11/01 13:58:56;;;;;;;;;18.00;15.00;;;;;24.16;40.93;98862.59;6099821;28;96634;-57
2022/11/01 14:02:45;;;;;;;;;23.00;17.00;;;;;23.92;41.62;98864.78;6096343;28;96452;-59
2022/11/01 14:06:18;;;;;;;;;15.60;15.00;;;;;23.65;42.01;98865.63;6082742;28;96567;-57
2022/11/01 14:09:30;;;;;;;;;14.80;13.80;;;;;23.53;42.19;98857.09;6095535;28;97136;-56
2022/11/01 14:12:36;;;;;;;;;11.00;11.00;;;;;23.42;42.06;98846.56;6095963;28;96292;-58
2022/11/01 14:16:02;;;;;;;;;10.00;9.40;;;;;23.41;42.45;98869.72;6099641;28;96267;-57
2022/11/01 14:19:15;;;;;;;;;10.00;9.00;;;;;23.19;42.79;98876.75;6094794;28;96534;-58
2022/11/01 14:22:27;;;;;;;;;10.00;9.00;;;;;22.89;43.29;98875.38;6099292;28;96595;-58
2022/11/01 14:25:32;;;;;;;;;11.00;10.00;;;;;22.70;43.61;98874.59;6094888;28;96377;-57
2022/11/01 14:28:43;;;;;;;;;11.00;10.00;;;;;22.36;44.52;98879.53;6098286;28;96923;-57
2022/11/01 14:31:51;;;;;;;;;12.40;11.00;;;;;22.15;45.01;98891.94;6097954;28;96077;-57